• Join FlightAware (Why Join?)
  • Login
  • US Flag 
05:23PM EDT


 

Airport Tracker/Info


-or-


 

Live Flight TrackerFlight Track Log ✈ SWA756 ✈ 24-Apr-2013 ✈ KOAK - KSAN

Flight Track Log - Related Links

Times and Time Zones

All times are in EDT time to prevent confusion due to time zone crossing. See the SWA756 flight status page for this flight to view local times or setup timezone preferences in your user account.

Time Position Orientation Groundspeed Altitude Reporting Facility
EDT Latitude Longitude Course Direction KTS MPH feet Rate Location/Type
02:35PM 37.7372 -122.2672 286° West 170 196 2,300  Level Oakland Center
02:36PM 37.7728 -122.3367 303° West 227 261 6,500 4,320 Climbing Oakland Center
02:37PM 37.7667 -122.4000 263° West 295 339 9,000 4,140 Climbing Northern Cal TRACON
02:38PM 37.7000 -122.4667 218° Southwest 320 368 12,800 3,660 Climbing Northern Cal TRACON
02:39PM 37.5514 -122.5447 203° Southwest 376 433 18,400 3,420 Climbing Oakland Center
02:40PM 37.4453 -122.5494 182° South 383 441 21,700 3,120 Climbing Oakland Center
02:41PM 37.3319 -122.5542 182° South 406 467 24,900 2,820 Climbing Oakland Center
02:42PM 37.2219 -122.5211 167° South 417 480 27,600 2,460 Climbing Oakland Center
02:43PM 37.1219 -122.4342 145° Southeast 435 501 30,000 2,160 Climbing Oakland Center
02:44PM 37.0178 -122.3497 147° Southeast 446 513 32,100 2,220 Climbing Oakland Center
02:45PM 36.9142 -122.2619 146° Southeast 450 518 34,600 2,220 Climbing Oakland Center
02:46PM 36.8117 -122.1753 146° Southeast 447 514 36,700 1,860 Climbing Oakland Center
02:47PM 36.7103 -122.0922 147° Southeast 440 506 38,500 1,560 Climbing Oakland Center
02:48PM 36.5881 -121.9906 146° Southeast 443 510 39,900 1,200 Climbing Oakland Center
02:50PM 36.4850 -121.9047 146° Southeast 446 513 41,000 480 Climbing Oakland Center
02:51PM 36.3839 -121.8189 146° Southeast 443 510 41,000  Level Oakland Center
02:52PM 36.2739 -121.7289 147° Southeast 444 511 41,000  Level Oakland Center
02:53PM 36.1722 -121.6458 147° Southeast 442 509 41,000  Level Oakland Center
02:54PM 36.0683 -121.5628 147° Southeast 444 511 41,000  Level Oakland Center
02:55PM 35.9653 -121.4767 146° Southeast 447 514 41,000  Level Oakland Center
02:56PM 35.8619 -121.3947 147° Southeast 445 512 41,000  Level Oakland Center
02:57PM 35.7594 -121.3108 146° Southeast 445 512 41,000  Level Oakland Center
02:58PM 35.6575 -121.2289 147° Southeast 441 507 41,000  Level Oakland Center
02:59PM 35.5364 -121.1311 147° Southeast 437 503 41,000  Level Oakland Center
03:00PM 35.4522 -121.0267 135° Southeast 437 503 41,000  Level Oakland Center
03:01PM 35.3828 -120.9017 124° Southeast 446 513 41,000  Level Oakland Center
03:02PM 35.3119 -120.7806 126° Southeast 442 509 41,000  Level Oakland Center
03:03PM 35.2431 -120.6578 124° Southeast 443 510 41,000  Level Oakland Center
03:04PM 35.1739 -120.5364 125° Southeast 444 511 41,000  Level Oakland Center
03:05PM 35.0936 -120.3967 125° Southeast 442 509 41,000  Level Los Angeles Center
03:06PM 35.0231 -120.2733 125° Southeast 440 506 41,000  Level Los Angeles Center
03:07PM 34.9528 -120.1503 125° Southeast 439 505 41,000  Level Los Angeles Center
03:08PM 34.8681 -120.0044 125° Southeast 438 504 41,000  Level Los Angeles Center
03:09PM 34.7972 -119.8839 126° Southeast 439 505 41,000  Level Los Angeles Center
03:10PM 34.7281 -119.7617 125° Southeast 440 506 41,000  Level Los Angeles Center
03:11PM 34.6569 -119.6417 126° Southeast 439 505 41,000  Level Los Angeles Center
03:12PM 34.5781 -119.5097 126° Southeast 433 498 41,000  Level Los Angeles Center
03:13PM 34.5067 -119.3897 126° Southeast 437 503 41,000  Level Los Angeles Center
03:14PM 34.4356 -119.2703 126° Southeast 438 504 41,000  Level Los Angeles Center
03:15PM 34.3658 -119.1506 125° Southeast 437 503 41,000  Level Los Angeles Center
03:16PM 34.2950 -119.0333 126° Southeast 434 499 41,000  Level Los Angeles Center
03:17PM 34.2094 -118.8922 126° Southeast 433 498 41,000 -540 Level Los Angeles Center
03:18PM 34.1400 -118.7753 126° Southeast 430 495 40,000 -1,200 Descending Los Angeles Center
03:19PM 34.0692 -118.6567 126° Southeast 434 499 38,600 -1,680 Descending Los Angeles Center
03:20PM 33.9981 -118.5392 126° Southeast 433 498 36,600 -2,040 Descending Los Angeles Center
03:22PM 33.9303 -118.4292 127° Southeast 415 478 34,500 -2,100 Descending Los Angeles Center
03:23PM 33.8550 -118.3317 133° Southeast 395 455 32,300 -2,220 Descending Los Angeles Center
03:24PM 33.7614 -118.2175 135° Southeast 405 466 29,900 -1,800 Descending Los Angeles Center
03:25PM 33.7103 -118.1464 131° Southeast 413 475 28,600 -1,980 Descending Los Angeles Center
03:26PM 33.5983 -118.0047 133° Southeast 417 480 25,900 -2,340 Descending Los Angeles Center
03:27PM 33.5228 -117.9092 133° Southeast 397 457 23,800 -1,680 Descending Los Angeles Center
03:28PM 33.4539 -117.8225 134° Southeast 365 420 22,500 -1,440 Descending Los Angeles Center
03:29PM 33.3858 -117.7378 134° Southeast 354 407 20,900 -1,500 Descending Los Angeles Center
03:30PM 33.3206 -117.6525 132° Southeast 350 403 19,100 -1,920 Descending Los Angeles Center
03:31PM 33.2500 -117.5667 134° Southeast 331 381 17,000 -2,040 Descending Southern California TRACON
03:32PM 33.1667 -117.5000 146° Southeast 320 368 15,200 -1,620 Descending Southern California TRACON
03:33PM 33.1000 -117.4333 140° Southeast 304 350 13,700 -1,860 Descending Southern California TRACON
03:34PM 33.0333 -117.3833 148° Southeast 303 349 11,500 -1,800 Descending Southern California TRACON
03:35PM 32.9667 -117.3333 148° Southeast 284 327 10,200 -1,200 Descending Southern California TRACON
03:36PM 32.9000 -117.2833 148° Southeast 250 288 9,100 -1,260 Descending Southern California TRACON
03:37PM 32.8333 -117.2333 148° Southeast 245 282 7,600 -1,320 Descending Southern California TRACON
03:37PM 32.8144 -117.2106 135° Southeast 244 281 7,100 -420 Descending Los Angeles Center
03:38PM 32.7981 -117.1506 108° East 224 258 7,000 -180 Descending Los Angeles Center
03:39PM 32.7833 -117.1167 117° Southeast 182 209 6,900  Descending Southern California TRACON
03:40PM 32.7833 -117.0500 90° East 166 191 7,000  Climbing Southern California TRACON
03:41PM 32.7667 -117.0000 112° Southeast 168 193 7,000  Level Southern California TRACON
03:42PM 32.7500 -116.9500 112° Southeast 170 196 7,000  Level Southern California TRACON
03:43PM 32.7500 -116.8833 90° East 173 199 7,000  Level Southern California TRACON
03:44PM 32.7383 -116.8661 129° Southeast 169 194 7,000 -780 Level Los Angeles Center
03:45PM 32.6956 -116.8628 176° South 188 216 5,800 -1,200 Descending Los Angeles Center
03:45PM 32.6833 -116.8833 235° Southwest 204 235 5,400 -840 Descending Southern California TRACON
03:46PM 32.6833 -116.9500 270° West 194 223 4,700 -900 Descending Southern California TRACON
03:47PM 32.6833 -117.0000 270° West 161 185 3,600 -1,200 Descending Southern California TRACON
03:48PM 32.7000 -117.0500 292° West 154 177 2,300 -1,200 Descending Southern California TRACON
03:49PM 32.7167 -117.1000 292° West 126 145 1,300 -840 Descending Southern California TRACON
03:50PM 32.7167 -117.1333 270° West 125 144 800 -540 Descending Southern California TRACON
03:51PM 32.7272 -117.1625 293° West 128 147 400 -420 Descending Los Angeles Center
03:52PM 32.7364 -117.1978 287° West 119 137 100 -300 Descending Los Angeles Center